Timeline UpdatesTrip UpdatesNews PostsPvt PostsTravel TipsAdmin PostsConv PostsFollowed PostsChat RequestsBlog PostsPNR Posts

Disclaimer
Search
 
 
Thu Apr 17, 2014 18:04:54 ISTHomeTrainsΣChainsAtlasPNRForumGalleryNewsFAQTripsMembersLoginFeedback
No Recent News for this Train
Other Trains in the News **new
Latest...
Tr. No. 57623 Kacheguda-Guntur Passenger, scheduled to depart Kacheguda at 05:10 hrs o­n 8th Octoser, 2013, is cancelled..
Sun Oct 06, 2013 (09:36PM)
⇐ Return Journey: Train# 57624

57623/Kacheguda-Guntur Passenger (UnReserved)

Sep 11 2013 (10:24PM)
Change Departure Station:
Change Arrival Station:
Post a Train Travel TipPost a Train Travel Tip **new
Post a Comment/Question/Picture/VideoPost a Comment/Question/Picture/Video
Pantry/Catering
✕ NO Pantry Car
✓ Catering Avbl
Loco/Rake Reversals
DHNE/Dhone Junction (3);
RSA - Rake Sharing
57623-57640-57639-57624
Rake/Coach Composition
Loco
GTL WDM-3A
News    PNR    Forum    Time-Table    Availability    Fare Chart    Map    Arr/Dep History    Trips    Gallery    ΣChains    X/O    Timeline    
Travel Time: 12h 9m    57 halts    Distance: 447 km    Avg Speed: 36 km/hr
Type: Passenger
Zone: SCR/South Central
Departs @ 05:10 (Avg 16m late)
Platform# ???
SMTWTFS
Hyderabad Kacheguda/KCG 
Arrives @ 17:19 (Avg 1h 57m late)
Platform# ???
SMTWTFS
Jaggambotla Krishnapuram/JBK 

57 halts. 61 intermediate Stations between Hyderabad Kacheguda and Jaggambotla Krishnapuram

Show ALL intermediate Stations  Show Old Time-Table

#CodeStation NameX/OArrivesAvgDepartsAvgHaltPFDay#KmSpeedElevZoneAddress
1KCG»Hyderabad Kacheguda (5)»  -05:10+16--10.048494mSCRHyderabad - 500027, Andhra Pradesh
2MXTMalakpet (2)X  05:12+1605:13+161m211.638494mSCRHyderabad, Andhra Pradesh
3DQRDabirpura (2)  05:15+1605:16+161m--12.911500mSCRHyderabad, Andhra Pradesh
4YKAYakutpura (2)  05:20+1605:21+161m--13.649505mSCRHyderabad, Andhra Pradesh
5HPGHuppuguda (2)  05:24+2105:25+211m--16.118520mSCRHyderabad, Andhra Pradesh
6FMFalaknuma (3)X  05:29+2105:30+241m--17.327523mSCRHyderabad, Andhra Pradesh
7BDVLBudvel (2)  05:45+2005:51+216m--113.949556mSCRHyderabad, Andhra Pradesh
8URUmdanagar (3)  05:59+2306:00+371m--120.476581mSCRHyderabad, Andhra Pradesh
9TMXTimmapur (2)  06:13+3906:14+491m--136.9-582mSCRRangareddy, Andhra Pradesh
10SHNRShadnagar (3)X  06:19+5906:20+1:081m--151.868648mSCRShadnagar, Andhra Pradesh
11BABRBalanagar (3)  06:32+1:1006:33+1:211m--165.465566mSCRMahabubnagar, Andhra Pradesh
12RRGARanga Reddy Guda (1)  06:38+1:2106:39+1:211m1170.861564mSCRMahabubnagar, Andhra Pradesh
13RJAPRajapur (1)  06:44+1:2206:45+1:221m1175.971541mSCRMahabubnagar, Andhra Pradesh
14GLYGollapally (1)X  06:49+1:2106:50+1:241m1180.730556mSCRMahabubnagar, Andhra Pradesh
15JCLJadcherla (3)X  07:05+1:1807:06+1:191m--188.258545mSCR509301, Andhra Pradesh
16DTPDivitipalli (2)  07:14+1:2007:15+1:241m--195.988520mSCRDivitipally, Andhra Pradesh
17YNGYenugonda (1)O  07:19+5807:20+581m11101.87508mSCRMahabubnagar, Andhra Pradesh
18MBNRMahbubnagar (3)X  07:55+5708:00+595m--1105.851500mSCRMahbubnagar, Andhra Pradesh
19MHBTMahbubnagar Town Halt (1)X  08:03+1:0408:04+1:041m11108.4137500mSCRMahbubnagar, Andhra Pradesh
20MQNManyamkonda (1)  08:09+1:0408:10+1:061m11119.887410mSCRTelangana Region, Andhra Pradesh
21KTKAKotakadra (1)X  08:13+1:1108:14+1:111m11124.274409mSCRKotakadra, Andhra Pradesh
22DKCDevarkadra (1)O  08:19+1:1108:20+1:131m11130.394390mSCRDevarkadra, Andhra Pradesh
23DKURDokur (1)O  08:23+1:1708:24+1:171m11135.088383mSCRNational Highway 7, Andhra Pradesh
24KQQKaukuntla (1)  08:28+1:1708:29+1:201m11140.975372mSCRKaukuntla, Andhra Pradesh
25KXIKurumurthi (1)  08:33+1:2008:34+1:201m11145.973361mSCRKurumurthi, Andhra Pradesh
26KONNKonnur (1)O  08:41+1:1108:42+1:111m11154.417346mSCRKonnur, Andhra Pradesh
27WPRWanaparti Road (2)  08:59+1:1109:00+1:111m--1159.249330mSCRMahbubnagar, Andhra Pradesh
28AJKAjjakolu (1)  09:05+1:1309:06+1:131m11163.350316mSCRMahabubnagar, Andhra Pradesh
29SRNRSriramnagar (2)  09:12+1:1309:13+1:141m--1168.383311mSCRSriramnagar, Andhra Pradesh
30ARPLArepalli Halt (1)  09:16+1:0409:17+1:041m11172.422301mSCRNational Highway 7, Andhra Pradesh
31GWDGadwal Junction (2)X  09:40+1:0309:45+1:025m--1180.970327mSCRMahbubnagar, Andhra Pradesh
32PDOPoodoor (1)  09:52+1:0609:53+1:081m11189.141330mSCRMahabubnagar Dist 509125, Andhra Pradesh
33PDNAPeddadinne (1)X  09:58+1:0309:59+1:031m11192.536319mSCRIeja to Gadwal Rd, Andhra Pradesh
34IKIItikyala (1)  10:10+1:0310:11+1:031m11199.154324mSCRItikyal, Andhra Pradesh
35MOAManopad (1)  10:26+1:0210:27+1:021m11212.559310mSCRManopad, Andhra Pradesh
36SBBJSri Bala Brahmeswara Jogulamba Halt (1)  10:41+1:0410:42+1:041m11226.449312mSCRAlampur Rd, Andhra Pradesh
37ALPRAlampur Road (1)O  10:45+1:0210:46+1:021m11228.98308mSCRAlampur Rd, Andhra Pradesh
38KRNTKurnool City (3)  11:43+2811:48+295m--1236.274293mSCRKurnool Ph:08518-220110, Andhra Pradesh
39KOLAKotla (1)  11:50+2811:51+281m11238.641288mSCRKurnool, Andhra Pradesh
40DUUDupadu (1)  12:03+2712:04+271m11246.975310mSCRRayalaseema Region, Andhra Pradesh
41UKDUlindakonda (1)  12:13+2712:14+281m11258.267329mSCRUlindakonda, Andhra Pradesh
42VDIVeldurti (2)X  12:25+2812:26+281m--1270.460341mSCRVeldurthi, Andhra Pradesh
43BVOBogolu (1)  12:35+3012:36+301m11279.415371mSCRBogolu Station, Andhra Pradesh
44DHNEDhone Junction (3)X↵¶13:20+1313:40+4820m--1290.561425mSCR518222, Andhra Pradesh
45MLKMalkapuram  13:53+5513:54+551m--1303.770459mSCRKurnool, Andhra Pradesh
46RGMRangapuram  14:04+1:0114:05+1:011m--1315.473440mSCRKurnool, Andhra Pradesh
47BMHBetamcherla (2)  14:14+1:0214:15+1:021m--1326.450425mSCRBetamcherla, Andhra Pradesh
48BEYBugganipalli Cement Nagar  14:23+1:0214:24+1:021m--1333.046386mSCRKurnool, Andhra Pradesh
49KEFKrishnama Kona (1)  14:36+1:0114:37+1:011m11342.148314mSCRCement Nagar Tammarajupalli Rd, Andhra Pradesh
50PNMPanyam (2)  14:49+1:1114:50+1:101m--1351.722227mSCRKurnool Dist., Andhra Pradesh
51NDLNandyal (3)X  15:30+1:3415:35+1:365m--1366.661216mSCRPhone Number : 9247019958, Andhra Pradesh
52GZLGazulapalli  15:49+1:4415:50+1:471m--1380.965238mSCRKurnool, Andhra Pradesh
53CMZChelama (1)X  16:00+1:4916:01+1:541m11391.736314mSCRKurnool, Andhra Pradesh
54DMTDiguvametta  16:29+1:4516:30+1:551m--1408.457315mSCRRayalaseema Region, Andhra Pradesh
55KSTEKrishnamsetty Palle  16:37+1:5016:38+1:501m--1415.124278mSCRPrakasam, Andhra Pradesh
56GIDGiddalur (2)X  16:50+1:4916:52+1:502m--1420.063269mSCRGiddalur ph.no 08405-242003, Andhra Pradesh
57GMAGudimetta  17:02+1:5717:03+1:571m--1430.466231mSCRBestavaripeta, Andhra Pradesh
58SDVSomidevipalle  17:07+1:5717:08+1:571m--1434.964225mSCRPhone Number : 9441901913, Andhra Pradesh
59JBK•Jaggambotla Krishnapuram•  17:19+1:5717:20+1:581m--1446.651200mSCRPhone;08406-200100, Andhra Pradesh
60CBMCumbum (1)  17:28+1:5917:30+2:002m11453.375199mSCRprakasham dist, Andhra Pradesh
61TLUTarlupadu (1)  17:42+2:0117:43+2:011m11468.373164mSCRPhone Number : 08499-246232, Andhra Pradesh
62MRKMarkapur Road (2)  17:52+2:0417:54+2:052m11479.262156mSCRmarkapur road ph.no 08596-222028, Andhra Pradesh
63GJJGajjelakonda (1)  18:07+2:0618:08+2:061m11492.639153mSCRPrakasam. Telephone 08499-247233, Andhra Pradesh
64DKDDonakonda (3)  18:25+2:0018:30+1:595m--1503.541154mSCRPhone:08408-272037, Andhra Pradesh
65POOPotlapadu (1)  18:39+1:5818:40+1:591m11509.682147mSCRAndhra Pradesh, Andhra Pradesh
66KCDKurichedu (1)  18:45+2:0118:46+2:021m11516.556121mSCRPrakasam dt, Andhra Pradesh
67GKMGundlakamma (1)  18:58+2:0018:59+2:011m11527.74491mSCRVinukonda, Andhra Pradesh
68CEMCheekategalapalem  19:05+2:0119:06+2:021m--1532.16678mSCRVinukonda, Andhra Pradesh
69VKNVinukonda (1)X  19:14+2:0219:16+2:032m11540.85895mSCRVinukonda, Andhra Pradesh
70SYMSavalyapuram  19:26+2:0219:28+2:032m--1550.66087mSCRGuntur Phone Number : 08646-259211, Andhra Pradesh
71VLEVellalcheruvu Halt  19:36+2:0119:37+2:011m--1558.62987mSCRVellalacheruvu, Andhra Pradesh
72SABSantamagulur  19:44+2:0119:45+2:021m--1562.15175mSCRGuntur, Andhra Pradesh
73MUKMunumaka  19:55+2:0119:56+2:021m--1570.62069mSCR08647-219555, Andhra Pradesh
74NRTNarasaraopet (3)  20:20+1:4720:22+1:492m--1578.45474mSCRNarsaraopet ph.no 08647-223131, Andhra Pradesh
75STURSatulurX  20:34+1:4420:35+1:441m--1589.14659mSCRGuntur, Andhra Pradesh
76NDPUNudurupaduX  20:43+1:4420:44+1:441m--1595.34349mSCRCoastal Andhra Region, Andhra Pradesh
77PPMPhirangipuram  20:54+1:4320:55+1:441m--1602.44162mSCRPhirangipuram, Andhra Pradesh
78PRCAPerecherla (1)  21:09+1:4021:10+1:411m11612.01175mSCRPerecherlaPRCA Station Phone Number : 0863-2290580, Andhra Pradesh
79NLPDNallapadu Junction (3)  21:44+1:0521:45+1:061m--1618.4746mSCRPhone Number : 0863-2119153, Andhra Pradesh
80GNTGuntur Junction (7)  22:30+51---1623.4-37mSCRGuntur, Andhra Pradesh
Scroll to Top
Scroll to Bottom